Harlan, IA

7:29 PM CST on December 06, 2019 (GMT -0600)
Harlan Municipal

Weather History for KHNR - October, 2019

Change the Weather History Date:

Thursday, October 3, 2019

  Actual Average Record
Temperature  
Mean Temperature 48 °F -  
Max Temperature 57 °F 69 °F 91 °F (2006)
Min Temperature 39 °F 45 °F 29 °F (1987)
Degree Days  
Heating Degree Days 17    
Moisture  
Dew Point 44 °F    
Average Humidity 85    
Maximum Humidity 100    
Minimum Humidity 58    
Precipitation  
Precipitation 0.00 in - - ()
Sea Level Pressure  
Sea Level Pressure 30.26 in    
Wind  
Wind Speed 10 mph ()    
Max Wind Speed 18 mph    
Max Gust Speed 26 mph    
Visibility 10.0 miles    
Events      
Averages and records for this station are not official NWS values.
T = Trace of Precipitation, MM = Missing Value Source: Averaged Metar Reports

Daily Weather History Graph

Daily Weather History Graph

Search for Another Location

Airport or City:

Astronomy

Oct. 03, 2019 Rise Set
Actual Time 7:20 AM CDT 7:00 PM CDT
Civil Twilight 6:52 AM CDT 7:27 PM CDT
Nautical Twilight 6:20 AM CDT 7:59 PM CDT
Astronomical Twilight 5:47 AM CDT 8:32 PM CDT
Moon 12:56 PM CDT (10/3) 10:36 PM CDT (10/3)
Length of Visible Light 12h 35m
Length of Day
11h 39m
Waxing Crescent, 30% of the Moon is Illuminated
Oct 3
Waxing Crescent
Oct 5
First Quarter
Oct 13
Full
Oct 21
Last Quarter
Oct 27
New

Hourly Weather History & Observations

Time (CDT) Temp. Windchill Dew Point Humidity Pressure Visibility Wind Dir Wind Speed Gust Speed Precip Events Conditions
12:15 AM 48.2 °F - 48.2 °F 100% 30.08 in 10.0 mi NW 18.4 mph 26.5 mph N/A   Overcast
12:35 AM 48.2 °F - 48.2 °F 100% 30.08 in 10.0 mi NW 15.0 mph 23.0 mph N/A   Overcast
12:55 AM 48.2 °F - 46.4 °F 93% 30.09 in 10.0 mi NW 18.4 mph 24.2 mph N/A   Overcast
1:15 AM 48.2 °F - 46.4 °F 93% 30.09 in 10.0 mi NW 17.3 mph 23.0 mph N/A   Overcast
1:35 AM 48.2 °F - 46.4 °F 93% 30.10 in 10.0 mi NW 15.0 mph 24.2 mph N/A   Overcast
1:55 AM 48.2 °F - 48.2 °F 100% 30.11 in 10.0 mi NW 11.5 mph - N/A   Overcast
2:15 AM 48.2 °F - 46.4 °F 93% 30.12 in 10.0 mi NW 12.7 mph 20.7 mph N/A   Overcast
2:35 AM 48.2 °F - 46.4 °F 93% 30.13 in 10.0 mi NNW 10.4 mph 16.1 mph N/A   Overcast
2:55 AM 48.2 °F - 46.4 °F 93% 30.13 in 10.0 mi NW 10.4 mph - N/A   Overcast
3:15 AM 48.2 °F - 44.6 °F 87% 30.14 in 10.0 mi NW 13.8 mph 19.6 mph N/A   Overcast
3:35 AM 48.2 °F - 46.4 °F 93% 30.14 in 10.0 mi NW 11.5 mph - N/A   Overcast
3:55 AM 46.4 °F 45.2 °F 46.4 °F 100% 30.15 in 10.0 mi NW 3.5 mph - N/A   Overcast
4:15 AM 46.4 °F 41.5 °F 44.6 °F 93% 30.16 in 10.0 mi NW 10.4 mph - N/A   Overcast
4:35 AM 46.4 °F 40.4 °F 44.6 °F 93% 30.18 in 10.0 mi NW 13.8 mph 21.9 mph N/A   Mostly Cloudy
4:55 AM 44.6 °F 39.7 °F 44.6 °F 100% 30.19 in 10.0 mi NW 9.2 mph - N/A   Scattered Clouds
5:15 AM 44.6 °F 40.2 °F 44.6 °F 100% 30.20 in 10.0 mi NW 8.1 mph - N/A   Clear
5:35 AM 44.6 °F 40.2 °F 44.6 °F 100% 30.20 in 10.0 mi NW 8.1 mph - N/A   Clear
5:55 AM 44.6 °F 40.7 °F 44.6 °F 100% 30.21 in 10.0 mi WNW 6.9 mph - N/A   Mostly Cloudy
6:15 AM 46.4 °F 42.9 °F 46.4 °F 100% 30.22 in 10.0 mi NW 6.9 mph - N/A   Overcast
6:35 AM 46.4 °F 42.4 °F 44.6 °F 93% 30.23 in 10.0 mi NW 8.1 mph - N/A   Overcast
6:55 AM 46.4 °F 41.9 °F 44.6 °F 93% 30.23 in 10.0 mi NW 9.2 mph - N/A   Overcast
7:15 AM 46.4 °F 42.9 °F 44.6 °F 93% 30.23 in 10.0 mi NW 6.9 mph - N/A   Overcast
7:35 AM 46.4 °F 42.4 °F 44.6 °F 93% 30.24 in 10.0 mi WNW 8.1 mph - N/A   Overcast
7:55 AM 46.4 °F 41.9 °F 44.6 °F 93% 30.24 in 10.0 mi NW 9.2 mph - N/A   Overcast
8:15 AM 46.4 °F 41.5 °F 46.4 °F 100% 30.24 in 10.0 mi NW 10.4 mph - N/A   Overcast
8:35 AM 46.4 °F 42.4 °F 46.4 °F 100% 30.24 in 10.0 mi NNW 8.1 mph - N/A   Overcast
8:55 AM 46.4 °F 40.4 °F 42.8 °F 87% 30.25 in 10.0 mi NW 13.8 mph - N/A   Overcast
9:15 AM 46.4 °F 41.1 °F 42.8 °F 87% 30.26 in 10.0 mi NNW 11.5 mph - N/A   Overcast
9:35 AM 46.4 °F 41.1 °F 42.8 °F 87% 30.26 in 10.0 mi NNW 11.5 mph 18.4 mph N/A   Overcast
9:55 AM 46.4 °F 41.5 °F 42.8 °F 87% 30.26 in 10.0 mi North 10.4 mph - N/A   Overcast
10:15 AM 46.4 °F 40.4 °F 42.8 °F 87% 30.28 in 10.0 mi NNW 13.8 mph - N/A   Overcast
10:35 AM 50.0 °F - 42.8 °F 76% 30.29 in 10.0 mi NW 11.5 mph - N/A   Overcast
10:55 AM 50.0 °F - 42.8 °F 76% 30.30 in 10.0 mi NW 9.2 mph 16.1 mph N/A   Overcast
11:15 AM 50.0 °F - 42.8 °F 76% 30.30 in 10.0 mi NW 10.4 mph 18.4 mph N/A   Overcast
11:35 AM 50.0 °F - 42.8 °F 76% 30.29 in 10.0 mi NNW 12.7 mph 19.6 mph N/A   Overcast
11:55 AM 50.0 °F - 42.8 °F 76% 30.30 in 10.0 mi NW 12.7 mph 20.7 mph N/A   Mostly Cloudy
12:15 PM 51.8 °F - 42.8 °F 71% 30.31 in 10.0 mi NNW 9.2 mph 15.0 mph N/A   Mostly Cloudy
12:35 PM 51.8 °F - 42.8 °F 71% 30.31 in 10.0 mi NW 10.4 mph - N/A   Mostly Cloudy
12:55 PM 51.8 °F - 42.8 °F 71% 30.31 in 10.0 mi NNW 10.4 mph - N/A   Mostly Cloudy
1:15 PM 53.6 °F - 42.8 °F 67% 30.31 in 10.0 mi NW 8.1 mph - N/A   Mostly Cloudy
1:35 PM 53.6 °F - 42.8 °F 67% 30.31 in 10.0 mi NW 11.5 mph 18.4 mph N/A   Mostly Cloudy
1:55 PM 55.4 °F - 42.8 °F 63% 30.30 in 10.0 mi NNW 12.7 mph - N/A   Scattered Clouds
2:15 PM 55.4 °F - 42.8 °F 63% 30.30 in 10.0 mi NW 12.7 mph - N/A   Partly Cloudy
2:35 PM 53.6 °F - 42.8 °F 67% 30.30 in 10.0 mi NW 12.7 mph - N/A   Partly Cloudy
2:55 PM 53.6 °F - 42.8 °F 67% 30.29 in 10.0 mi NNW 12.7 mph 18.4 mph N/A   Partly Cloudy
3:15 PM 55.4 °F - 42.8 °F 63% 30.30 in 10.0 mi NNW 11.5 mph - N/A   Clear
3:35 PM 55.4 °F - 42.8 °F 63% 30.30 in 10.0 mi North 10.4 mph - N/A   Clear
3:55 PM 57.2 °F - 42.8 °F 59% 30.29 in 10.0 mi NW 11.5 mph - N/A   Clear
4:15 PM 57.2 °F - 42.8 °F 59% 30.30 in 10.0 mi NNW 10.4 mph 17.3 mph N/A   Clear
4:35 PM 57.2 °F - 42.8 °F 59% 30.30 in 10.0 mi North 10.4 mph 17.3 mph N/A   Clear
4:55 PM 57.2 °F - 42.8 °F 59% 30.30 in 10.0 mi NNW 10.4 mph - N/A   Clear
5:15 PM 55.4 °F - 41.0 °F 58% 30.30 in 10.0 mi NNW 11.5 mph - N/A   Clear
5:35 PM 55.4 °F - 42.8 °F 63% 30.30 in 10.0 mi Variable 6.9 mph - N/A   Clear
5:55 PM 55.4 °F - 42.8 °F 63% 30.30 in 10.0 mi North 8.1 mph 13.8 mph N/A   Clear
6:15 PM 55.4 °F - 42.8 °F 63% 30.30 in 10.0 mi North 5.8 mph - N/A   Clear
6:35 PM 53.6 °F - 42.8 °F 67% 30.30 in 10.0 mi NNW 4.6 mph - N/A   Clear
6:55 PM 50.0 °F - 44.6 °F 82% 30.31 in 10.0 mi NNW 4.6 mph - N/A   Clear
7:15 PM 48.2 °F - 44.6 °F 87% 30.31 in 10.0 mi NNW 5.8 mph - N/A   Clear
7:35 PM 46.4 °F 45.2 °F 44.6 °F 93% 30.32 in 10.0 mi North 3.5 mph - N/A   Clear
7:55 PM 46.4 °F 44.3 °F 44.6 °F 93% 30.32 in 10.0 mi North 4.6 mph - N/A   Clear
8:15 PM 46.4 °F 44.3 °F 44.6 °F 93% 30.32 in 10.0 mi North 4.6 mph - N/A   Clear
8:35 PM 44.6 °F 43.1 °F 44.6 °F 100% 30.32 in 10.0 mi North 3.5 mph - N/A   Clear
8:55 PM 44.6 °F - 44.6 °F 100% 30.33 in 10.0 mi Calm Calm - N/A   Clear
9:15 PM 42.8 °F - 42.8 °F 100% 30.33 in 10.0 mi Calm Calm - N/A   Clear
9:35 PM 42.8 °F - 42.8 °F 100% 30.34 in 10.0 mi Calm Calm - N/A   Clear
9:55 PM 41.0 °F - 41.0 °F 100% 30.35 in 10.0 mi Calm Calm - N/A   Clear
10:15 PM 41.0 °F - 41.0 °F 100% 30.36 in 10.0 mi Calm Calm - N/A   Clear
10:35 PM 41.0 °F - 41.0 °F 100% 30.36 in 10.0 mi Calm Calm - N/A   Clear
10:55 PM 41.0 °F - 41.0 °F 100% 30.36 in 10.0 mi Calm Calm - N/A   Clear
11:15 PM 41.0 °F - 41.0 °F 100% 30.37 in 10.0 mi Calm Calm - N/A   Clear
11:35 PM 39.2 °F - 39.2 °F 100% 30.37 in 10.0 mi Calm Calm - N/A   Clear
11:55 PM 39.2 °F 37.0 °F 39.2 °F 100% 30.37 in 10.0 mi North 3.5 mph - N/A   Clear